Flight Track Log - Related Links

Times and Time Zones

All times are in EDT time to prevent confusion due to time zone crossing. See the AAL963 flight status page for this flight to view local times or setup timezone preferences in your user account.

Time Position Orientation Groundspeed Altitude Reporting Facility
EDT Latitude Longitude Course Direction KTS MPH feet Rate Location/Type
Thu 10:03:49 PM 32.9500 -97.0260 10° North 199 229 2,300  Level FlightAware ADS-B
Thu 10:04:14 PM 32.9740 -97.0200 12° North 226 260 2,700 1,444 Climbing FlightAware ADS-B
Thu 10:04:43 PM 33.0050 -97.0140 North 241 277 3,600 2,133 Climbing FlightAware ADS-B
Thu 10:04:59 PM 33.0230 -97.0100 11° North 241 277 4,300 2,286 Climbing FlightAware ADS-B
Thu 10:05:25 PM 33.0440 -96.9870 43° Northeast 254 292 5,200 1,833 Climbing FlightAware ADS-B
Thu 10:05:35 PM 33.0480 -96.9730 71° East 264 304 5,400 1,950 Climbing FlightAware ADS-B
Thu 10:06:05 PM 33.0360 -96.9300 108° East 286 329 6,500 1,837 Climbing FlightAware ADS-B
Thu 10:06:24 PM 33.0150 -96.9110 143° Southeast 305 351 6,900 1,742 Climbing FlightAware ADS-B
Thu 10:06:36 PM 32.9990 -96.9050 163° South 306 352 7,400 2,400 Climbing FlightAware ADS-B
Thu 10:07:04 PM 32.9590 -96.9040 179° South 302 348 8,500 2,464 Climbing FlightAware ADS-B
Thu 10:07:32 PM 32.9210 -96.9010 176° South 299 344 9,700 1,913 Climbing FlightAware ADS-B
Thu 10:08:13 PM 32.8610 -96.8940 174° South 325 374 10,700 1,244 Climbing FlightAware ADS-B
Thu 10:08:54 PM 32.7970 -96.8850 173° South 361 415 11,400 1,084 Climbing FlightAware ADS-B
Thu 10:09:36 PM 32.7230 -96.8750 174° South 390 449 12,200 1,143 Climbing FlightAware ADS-B
Thu 10:10:18 PM 32.6460 -96.8650 174° South 416 479 13,000 1,571 Climbing FlightAware ADS-B
Thu 10:11:00 PM 32.5640 -96.8530 173° South 426 490 14,400 1,923 Climbing FlightAware ADS-B
Thu 10:11:36 PM 32.4920 -96.8440 174° South 435 501 15,500 1,870 Climbing FlightAware ADS-B
Thu 10:12:17 PM 32.4090 -96.8320 173° South 441 507 16,800 1,875 Climbing FlightAware ADS-B
Thu 10:12:40 PM 32.3606 -96.8258 174° South 445 512 17,500 1,875 Climbing FlightAware ADS-B
Thu 10:13:05 PM 32.3094 -96.8182 173° South 451 519 18,300 1,869 Climbing FlightAware ADS-B
Thu 10:13:41 PM 32.2360 -96.7973 166° South 454 522 19,400 1,747 Climbing FlightAware ADS-B
Thu 10:14:24 PM 32.1500 -96.7650 162° South 467 537 20,600 1,684 Climbing FlightAware ADS-B
Thu 10:14:38 PM 32.1194 -96.7528 161° South 470 541 21,000 1,625 Climbing FlightAware ADS-B
Thu 10:15:12 PM 32.0474 -96.7251 162° South 476 548 21,900 1,701 Climbing FlightAware ADS-B
Thu 10:15:45 PM 31.9785 -96.6988 162° South 480 552 22,900 1,619 Climbing FlightAware ADS-B
Thu 10:16:15 PM 31.9137 -96.6743 162° South 486 559 23,600 1,645 Climbing FlightAware ADS-B
Thu 10:16:47 PM 31.8458 -96.6482 162° South 483 556 24,600 1,548 Climbing FlightAware ADS-B
Thu 10:17:17 PM 31.7805 -96.6210 161° South 490 564 25,200 1,239 Climbing FlightAware ADS-B
Thu 10:18:19 PM 31.6468 -96.5659 161° South 496 571 26,500 1,277 Climbing FlightAware ADS-B
Thu 10:18:51 PM 31.5777 -96.5378 161° South 498 573 27,200 1,258 Climbing FlightAware ADS-B
Thu 10:19:21 PM 31.5123 -96.5112 161° South 499 574 27,800 1,121 Climbing FlightAware ADS-B
Thu 10:20:22 PM 31.3770 -96.4607 163° South 504 580 28,900 1,020 Climbing FlightAware ADS-B
Thu 10:21:54 PM 31.1703 -96.3840 162° South 508 585 30,400 1,220 Climbing FlightAware ADS-B
Thu 10:22:25 PM 31.1023 -96.3589 162° South 498 573 31,400 1,770 Climbing FlightAware ADS-B
Thu 10:22:55 PM 31.0368 -96.3352 163° South 489 563 32,200 1,429 Climbing FlightAware ADS-B
Thu 10:23:07 PM 31.0105 -96.3269 165° South 487 560 32,400 889 Climbing FlightAware ADS-B
Thu 10:23:22 PM 30.9788 -96.3185 167° South 487 560 32,600 692 Climbing FlightAware ADS-B
Thu 10:23:33 PM 30.9547 -96.3095 162° South 491 565 32,700 632 Climbing FlightAware ADS-B
Thu 10:23:41 PM 30.9373 -96.3008 157° South 494 568 32,800 632 Climbing FlightAware ADS-B
Thu 10:23:52 PM 30.9156 -96.2868 151° Southeast 499 574 32,900 375 Climbing FlightAware ADS-B
Thu 10:24:13 PM 30.8757 -96.2544 145° Southeast 501 577 33,000 130 Climbing FlightAware ADS-B
Thu 10:24:38 PM 30.8316 -96.2103 138° Southeast 501 577 33,000  Level FlightAware ADS-B
Thu 10:26:40 PM 30.6378 -95.9727 133° Southeast 499 574 33,000  Level FlightAware ADS-B
Thu 10:28:11 PM 30.4931 -95.7961 134° Southeast 502 578 33,000  Level FlightAware ADS-B
Thu 10:29:14 PM 30.3922 -95.6733 134° Southeast 504 580 33,000 63 Level FlightAware ADS-B
Thu 10:29:46 PM 30.3414 -95.6117 134° Southeast 508 585 33,100 581 Climbing FlightAware ADS-B
Thu 10:30:16 PM 30.2920 -95.5519 134° Southeast 508 585 33,600 1,000 Climbing FlightAware ADS-B
Thu 10:30:46 PM 30.2430 -95.4925 134° Southeast 504 580 34,100 885 Climbing FlightAware ADS-B
Thu 10:31:17 PM 30.1942 -95.4338 134° Southeast 503 579 34,500 787 Climbing FlightAware ADS-B
Thu 10:31:47 PM 30.1449 -95.3742 134° Southeast 501 577 34,900 492 Climbing FlightAware ADS-B
Thu 10:32:18 PM 30.0963 -95.3157 134° Southeast 498 573 35,000 65 Climbing FlightAware ADS-B
Thu 10:33:19 PM 30.0004 -95.2003 134° Southeast 485 558 35,000  Level FlightAware ADS-B
Thu 10:33:49 PM 29.9537 -95.1443 134° Southeast 484 557 35,000  Level FlightAware ADS-B
Thu 10:34:50 PM 29.8602 -95.0327 134° Southeast 481 554 35,000  Level FlightAware ADS-B
Thu 10:35:20 PM 29.8136 -94.9768 134° Southeast 480 552 35,000  Level FlightAware ADS-B
Thu 10:35:50 PM 29.7674 -94.9218 134° Southeast 479 551 35,000  Level FlightAware ADS-B
Thu 10:36:20 PM 29.7202 -94.8658 134° Southeast 479 551 35,000  Level FlightAware ADS-B
Thu 10:37:22 PM 29.6253 -94.7530 134° Southeast 477 549 35,000  Level FlightAware ADS-B
Thu 10:37:52 PM 29.5789 -94.6980 134° Southeast 474 545 35,000  Level FlightAware ADS-B
Thu 10:38:22 PM 29.5330 -94.6437 134° Southeast 475 547 35,000  Level FlightAware ADS-B
Thu 10:38:45 PM 29.4984 -94.6031 134° Southeast 479 551 35,000  Level FlightAware ADS-B
Thu 10:39:46 PM 29.3966 -94.5029 140° Southeast 476 548 35,000  Level FlightAware ADS-B
Thu 10:40:16 PM 29.3453 -94.4542 140° Southeast 474 545 35,000  Level FlightAware ADS-B
Thu 10:41:24 PM 29.2320 -94.3450 140° Southeast 471 542 35,000  Level FlightAware ADS-B
Thu 10:42:03 PM 29.1780 -94.2910 139° Southeast 471 542 35,000  Level FlightAware ADS-B
Thu 10:43:09 PM 29.0650 -94.1820 140° Southeast 478 550 35,000  Level FlightAware ADS-B
Thu 10:43:46 PM 29.0130 -94.1300 139° Southeast 478 550 35,000  Level FlightAware ADS-B
Thu 10:44:34 PM 28.9450 -94.0620 139° Southeast 478 550 35,000  Level FlightAware ADS-B
Thu 10:45:10 PM 28.8930 -94.0120 140° Southeast 478 550 35,000  Level FlightAware ADS-B
Thu 10:45:48 PM 28.8400 -93.9580 138° Southeast 478 550 35,000  Level FlightAware ADS-B
Thu 10:46:36 PM 28.7710 -93.8910 140° Southeast 478 550 35,000  Level FlightAware ADS-B
Thu 10:46:56 PM 28.6259 -93.8326 161° South 507 583 35,000  Level FlightAware ADS-B
Thu 10:47:26 PM 28.5689 -93.7853 144° Southeast 506 582 35,000  Level FlightAware ADS-B
Thu 10:47:57 PM 28.5117 -93.7373 144° Southeast 505 581 35,000  Level FlightAware ADS-B
Thu 10:48:27 PM 28.4555 -93.6875 142° Southeast 506 582 35,000  Level FlightAware ADS-B
Thu 10:49:22 PM 28.3657 -93.5808 134° Southeast 507 583 35,000  Level FlightAware ADS-B
Thu 10:50:25 PM 28.2917 -93.4772 134° Southeast 510 587 35,000  Level Houston Center
Thu 10:51:26 PM 28.2033 -93.3528 129° Southeast 510 587 35,000 -49 Level Houston Center
Thu 10:52:27 PM 28.1081 -93.2219 130° Southeast 505 581 34,900 -49 Descending Houston Center
Thu 10:53:28 PM 28.0186 -93.0975 129° Southeast 509 586 34,900 49 Level Houston Center
Thu 10:54:29 PM 27.9286 -92.9742 130° Southeast 508 585 35,000 49 Climbing Houston Center
Thu 10:55:30 PM 27.8200 -92.8261 130° Southeast 512 589 35,000  Level Houston Center
Thu 10:56:32 PM 27.7292 -92.6997 129° Southeast 516 594 35,000  Level Houston Center
Thu 10:57:33 PM 27.6369 -92.5756 130° Southeast 516 594 35,000 -49 Level Houston Center
Thu 10:58:34 PM 27.5444 -92.4514 130° Southeast 517 595 34,900  Descending Houston Center
Thu 10:59:35 PM 27.4542 -92.3242 129° Southeast 520 598 35,000  Climbing Houston Center
Thu 11:00:36 PM 27.3611 -92.2022 131° Southeast 516 594 34,900  Descending Houston Center
Thu 11:01:36 PM 27.2689 -92.0750 129° Southeast 522 601 35,000 50 Climbing Houston Center
Thu 11:02:37 PM 27.1739 -91.9517 131° Southeast 523 602 35,000  Level Houston Center
Thu 11:04:00 PM 27.0241 -91.8292 144° Southeast  Level FlightAware Approximate
Thu 11:11:00 PM 26.2625 -91.2142 145° Southeast  Level FlightAware Approximate
Thu 11:12:00 PM 26.1531 -91.1281 145° Southeast  Level FlightAware Approximate
Thu 11:13:00 PM 26.0436 -91.0421 145° Southeast  Level FlightAware Approximate
Thu 11:14:00 PM 25.9342 -90.9563 145° Southeast  Level FlightAware Approximate
Thu 11:15:00 PM 25.8246 -90.8707 145° Southeast  Level FlightAware Approximate
Thu 11:16:00 PM 25.7151 -90.7852 145° Southeast  Level FlightAware Approximate
Thu 11:17:00 PM 25.6054 -90.6998 145° Southeast  Level FlightAware Approximate
Thu 11:18:00 PM 25.4958 -90.6147 145° Southeast  Level FlightAware Approximate
Thu 11:19:00 PM 25.3860 -90.5296 145° Southeast  Level FlightAware Approximate
Thu 11:20:00 PM 25.2762 -90.4448 145° Southeast  Level FlightAware Approximate
Thu 11:21:00 PM 25.1664 -90.3600 145° Southeast  Level FlightAware Approximate
Thu 11:22:00 PM 25.0565 -90.2755 145° Southeast  Level FlightAware Approximate
Thu 11:23:00 PM 24.9466 -90.1911 145° Southeast  Level FlightAware Approximate
Thu 11:24:00 PM 24.8366 -90.1068 145° Southeast  Level FlightAware Approximate
Thu 11:25:00 PM 24.7266 -90.0227 145° Southeast  Level FlightAware Approximate
Thu 11:26:00 PM 24.6174 -89.9394 145° Southeast  Level FlightAware Approximate
Thu 11:27:00 PM 24.5081 -89.8562 145° Southeast  Level FlightAware Approximate
Thu 11:28:00 PM 24.3998 -89.7721 146° Southeast  Level FlightAware Approximate
Thu 11:29:00 PM 24.2892 -89.6911 146° Southeast  Level FlightAware Approximate
Thu 11:30:00 PM 24.1786 -89.6104 146° Southeast  Level FlightAware Approximate
Thu 11:31:00 PM 24.0679 -89.5297 146° Southeast  Level FlightAware Approximate
Thu 11:32:00 PM 23.9585 -89.4471 145° Southeast  Level FlightAware Approximate
Thu 11:33:00 PM 23.8493 -89.3642 145° Southeast  Level FlightAware Approximate
Thu 11:34:00 PM 23.7401 -89.2815 145° Southeast  Level FlightAware Approximate
Thu 11:35:00 PM 23.6308 -89.1989 145° Southeast  Level FlightAware Approximate
Thu 11:36:00 PM 23.5215 -89.1165 145° Southeast  Level FlightAware Approximate
Thu 11:37:00 PM 23.4121 -89.0341 145° Southeast  Level FlightAware Approximate
Thu 11:38:00 PM 23.3027 -88.9520 145° Southeast  Level FlightAware Approximate
Thu 11:39:00 PM 23.1933 -88.8699 145° Southeast  Level FlightAware Approximate
Thu 11:40:00 PM 23.0843 -88.7873 145° Southeast  Level FlightAware Approximate
Thu 11:41:00 PM 22.9754 -88.7045 145° Southeast  Level FlightAware Approximate
Thu 11:42:00 PM 22.8664 -88.6219 145° Southeast  Level FlightAware Approximate
Thu 11:43:00 PM 22.7575 -88.5394 145° Southeast  Level FlightAware Approximate
Thu 11:44:00 PM 22.6520 -88.4521 137° Southeast  Level FlightAware Approximate
Thu 11:45:00 PM 22.5542 -88.3547 137° Southeast  Level FlightAware Approximate
Thu 11:46:00 PM 22.4563 -88.2574 137° Southeast  Level FlightAware Approximate
Thu 11:47:00 PM 22.3583 -88.1602 137° Southeast  Level FlightAware Approximate
Thu 11:48:00 PM 22.2603 -88.0632 138° Southeast  Level FlightAware Approximate
Thu 11:49:00 PM 22.1623 -87.9663 138° Southeast  Level FlightAware Approximate
Thu 11:50:00 PM 22.0641 -87.8696 138° Southeast  Level FlightAware Approximate
Thu 11:51:00 PM 21.9659 -87.7730 138° Southeast  Level FlightAware Approximate
Thu 11:52:00 PM 21.8677 -87.6765 138° Southeast  Level FlightAware Approximate
Thu 11:53:00 PM 21.7696 -87.5804 138° Southeast  Level FlightAware Approximate
Thu 11:54:00 PM 21.6714 -87.4843 138° Southeast  Level FlightAware Approximate
Thu 11:55:00 PM 21.5732 -87.3884 138° Southeast  Level FlightAware Approximate
Thu 11:56:00 PM 21.4748 -87.2927 138° Southeast  Level FlightAware Approximate
Thu 11:57:00 PM 21.3764 -87.1972 138° Southeast  Level FlightAware Approximate
Thu 11:58:00 PM 21.2778 -87.1019 138° Southeast  Level FlightAware Approximate
Thu 11:59:00 PM 21.1792 -87.0066 138° Southeast  Level FlightAware Approximate
Fri 12:00:00 AM 21.0806 -86.9115 138° Southeast  Level FlightAware Approximate
Fri 12:01:00 AM 20.9821 -86.8163 138° Southeast  Level FlightAware Approximate
Fri 12:02:00 AM 20.8840 -86.7207 138° Southeast  Level FlightAware Approximate
Fri 12:03:00 AM 20.7858 -86.6253 138° Southeast  Level FlightAware Approximate
Fri 12:04:00 AM 20.6876 -86.5299 138° Southeast  Level FlightAware Approximate
Fri 12:05:00 AM 20.5893 -86.4347 138° Southeast  Level FlightAware Approximate
Fri 12:06:00 AM 20.4910 -86.3396 138° Southeast  Level FlightAware Approximate
Fri 12:07:00 AM 20.3926 -86.2446 138° Southeast  Level FlightAware Approximate
Fri 12:08:00 AM 20.2941 -86.1498 138° Southeast  Level FlightAware Approximate
Fri 12:09:00 AM 20.1956 -86.0551 138° Southeast  Level FlightAware Approximate
Fri 12:10:00 AM 20.0971 -85.9604 138° Southeast  Level FlightAware Approximate
Fri 12:11:00 AM 19.9984 -85.8661 138° Southeast  Level FlightAware Approximate
Fri 12:12:00 AM 19.8992 -85.7724 138° Southeast  Level FlightAware Approximate
Fri 12:13:00 AM 19.7999 -85.6788 138° Southeast  Level FlightAware Approximate
Fri 12:14:00 AM 19.7006 -85.5854 138° Southeast  Level FlightAware Approximate
Fri 12:15:00 AM 19.6013 -85.4920 138° Southeast  Level FlightAware Approximate
Fri 12:16:00 AM 19.5017 -85.3986 139° Southeast  Level FlightAware Approximate
Fri 12:17:00 AM 19.4021 -85.3054 139° Southeast  Level FlightAware Approximate
Fri 12:18:00 AM 19.3024 -85.2122 139° Southeast  Level FlightAware Approximate
Fri 12:19:00 AM 19.2027 -85.1192 139° Southeast  Level FlightAware Approximate
Fri 12:20:00 AM 19.1029 -85.0262 139° Southeast  Level FlightAware Approximate
Fri 12:21:00 AM 19.0030 -84.9334 139° Southeast  Level FlightAware Approximate
Fri 12:22:00 AM 18.9032 -84.8407 139° Southeast  Level FlightAware Approximate
Fri 12:23:00 AM 18.8033 -84.7481 139° Southeast  Level FlightAware Approximate
Fri 12:24:00 AM 18.7033 -84.6556 139° Southeast  Level FlightAware Approximate
Fri 12:25:00 AM 18.6033 -84.5632 139° Southeast  Level FlightAware Approximate
Fri 12:26:00 AM 18.5069 -84.4676 123° Southeast  Level FlightAware Approximate
Fri 12:27:00 AM 18.4337 -84.3506 123° Southeast  Level FlightAware Approximate
Fri 12:28:00 AM 18.3582 -84.2354 125° Southeast  Level FlightAware Approximate
Fri 12:29:00 AM 18.2825 -84.1203 125° Southeast  Level FlightAware Approximate
Fri 12:30:00 AM 18.2068 -84.0053 125° Southeast  Level FlightAware Approximate
Fri 12:31:00 AM 18.1311 -83.8904 125° Southeast  Level FlightAware Approximate
Fri 12:32:00 AM 18.0552 -83.7756 125° Southeast  Level FlightAware Approximate
Fri 12:33:00 AM 17.9793 -83.6609 125° Southeast  Level FlightAware Approximate
Fri 12:34:00 AM 17.8918 -83.5565 135° Southeast  Level FlightAware Approximate
Fri 12:35:00 AM 17.7970 -83.4587 136° Southeast  Level FlightAware Approximate
Fri 12:36:00 AM 17.7021 -83.3610 136° Southeast  Level FlightAware Approximate
Fri 12:37:00 AM 17.6072 -83.2634 136° Southeast  Level FlightAware Approximate
Fri 12:38:00 AM 17.5122 -83.1658 136° Southeast  Level FlightAware Approximate
Fri 12:39:00 AM 17.4172 -83.0684 136° Southeast  Level FlightAware Approximate
Fri 12:40:00 AM 17.3198 -82.9738 139° Southeast  Level FlightAware Approximate
Fri 12:41:00 AM 17.2197 -82.8823 139° Southeast  Level FlightAware Approximate
Fri 12:42:00 AM 17.1195 -82.7909 139° Southeast  Level FlightAware Approximate
Fri 12:43:00 AM 17.0193 -82.6996 139° Southeast  Level FlightAware Approximate
Fri 12:44:00 AM 16.9191 -82.6084 139° Southeast  Level FlightAware Approximate
Fri 12:45:00 AM 16.8188 -82.5172 139° Southeast  Level FlightAware Approximate
Fri 12:46:00 AM 16.7184 -82.4262 139° Southeast  Level FlightAware Approximate
Fri 12:47:00 AM 16.6181 -82.3353 139° Southeast  Level FlightAware Approximate
Fri 12:48:00 AM 16.5177 -82.2445 139° Southeast  Level FlightAware Approximate
Fri 12:49:00 AM 16.4199 -82.1510 134° Southeast  Level FlightAware Approximate
Fri 12:50:00 AM 16.3275 -82.0519 134° Southeast  Level FlightAware Approximate
Fri 12:51:00 AM 16.2350 -81.9528 134° Southeast  Level FlightAware Approximate
Fri 12:52:00 AM 16.1425 -81.8538 134° Southeast  Level FlightAware Approximate
Fri 12:53:00 AM 16.0499 -81.7549 134° Southeast  Level FlightAware Approximate
Fri 12:54:00 AM 15.9573 -81.6561 134° Southeast  Level FlightAware Approximate
Fri 12:55:00 AM 15.8646 -81.5574 134° Southeast  Level FlightAware Approximate
Fri 12:56:00 AM 15.7719 -81.4587 134° Southeast  Level FlightAware Approximate
Fri 12:57:00 AM 15.6798 -81.3595 133° Southeast  Level FlightAware Approximate
Fri 12:58:00 AM 15.5887 -81.2595 133° Southeast  Level FlightAware Approximate
Fri 12:59:00 AM 15.4974 -81.1595 133° Southeast  Level FlightAware Approximate
Fri 01:00:00 AM 15.4062 -81.0596 133° Southeast  Level FlightAware Approximate
Fri 01:01:00 AM 15.3149 -80.9598 133° Southeast  Level FlightAware Approximate
Fri 01:02:00 AM 15.2235 -80.8601 134° Southeast  Level FlightAware Approximate
Fri 01:03:00 AM 15.1321 -80.7605 134° Southeast  Level FlightAware Approximate
Fri 01:04:00 AM 15.0407 -80.6609 134° Southeast  Level FlightAware Approximate
Fri 01:05:00 AM 14.9419 -80.5698 142° Southeast  Level FlightAware Approximate
Fri 01:06:00 AM 14.8371 -80.4856 142° Southeast  Level FlightAware Approximate
Fri 01:07:00 AM 14.7324 -80.4014 142° Southeast  Level FlightAware Approximate
Fri 01:08:00 AM 14.6276 -80.3173 142° Southeast  Level FlightAware Approximate
Fri 01:09:00 AM 14.5228 -80.2333 142° Southeast  Level FlightAware Approximate
Fri 01:10:00 AM 14.4179 -80.1494 142° Southeast  Level FlightAware Approximate
Fri 01:11:00 AM 14.3130 -80.0656 142° Southeast  Level FlightAware Approximate
Fri 01:12:00 AM 14.2081 -79.9818 142° Southeast  Level FlightAware Approximate
Fri 01:13:00 AM 14.1032 -79.8981 142° Southeast  Level FlightAware Approximate
Fri 01:14:00 AM 13.9982 -79.8145 142° Southeast  Level FlightAware Approximate
Fri 01:15:00 AM 13.8932 -79.7309 142° Southeast  Level FlightAware Approximate
Fri 01:16:00 AM 13.7884 -79.6470 142° Southeast  Level FlightAware Approximate
Fri 01:17:00 AM 13.6841 -79.5627 142° Southeast  Level FlightAware Approximate
Fri 01:18:00 AM 13.5797 -79.4785 142° Southeast  Level FlightAware Approximate
Fri 01:19:00 AM 13.4752 -79.3944 142° Southeast  Level FlightAware Approximate
Fri 01:20:00 AM 13.3708 -79.3103 142° Southeast  Level FlightAware Approximate
Fri 01:21:00 AM 13.2663 -79.2263 142° Southeast  Level FlightAware Approximate
Fri 01:22:00 AM 13.1618 -79.1424 142° Southeast  Level FlightAware Approximate
Fri 01:23:00 AM 13.0573 -79.0585 142° Southeast  Level FlightAware Approximate
Fri 01:24:00 AM 12.9527 -78.9747 142° Southeast  Level FlightAware Approximate
Fri 01:25:00 AM 12.8481 -78.8910 142° Southeast  Level FlightAware Approximate
Fri 01:26:00 AM 12.7435 -78.8073 142° Southeast  Level FlightAware Approximate
Fri 01:27:00 AM 12.6388 -78.7238 142° Southeast  Level FlightAware Approximate
Fri 01:28:00 AM 12.5342 -78.6403 142° Southeast  Level FlightAware Approximate
Fri 01:29:00 AM 12.4295 -78.5568 142° Southeast  Level FlightAware Approximate
Fri 01:30:00 AM 12.3240 -78.4744 143° Southeast  Level FlightAware Approximate
Fri 01:30:56 AM 11.4320 -77.7830 143° Southeast 493 567 35,000  Level FlightAware ADS-B
Fri 01:31:00 AM 12.2182 -78.3925 143° Southeast  Level FlightAware Approximate
Fri 01:31:36 AM 11.3660 -77.7310 142° Southeast 493 567 35,000  Level FlightAware ADS-B
Fri 01:32:33 AM 11.2670 -77.6540 143° Southeast 493 567 35,000  Level FlightAware ADS-B
Fri 01:33:09 AM 11.2120 -77.6100 142° Southeast 493 567 35,000  Level FlightAware ADS-B
Fri 01:33:57 AM 11.1390 -77.5520 142° Southeast 493 567 35,000  Level FlightAware ADS-B
Fri 01:35:06 AM 10.9700 -77.4250 144° Southeast 500 575 35,000  Level FlightAware ADS-B
Fri 01:35:46 AM 10.9020 -77.3640 139° Southeast 498 573 35,000  Level FlightAware ADS-B
Fri 01:36:34 AM 10.8250 -77.2920 137° Southeast 492 566 35,000  Level FlightAware ADS-B
Fri 01:37:24 AM 10.7470 -77.2170 137° Southeast 493 567 35,000  Level FlightAware ADS-B
Fri 01:38:12 AM 10.6800 -77.1520 136° Southeast 493 567 35,000  Level FlightAware ADS-B
Fri 01:38:48 AM 10.6300 -77.1020 135° Southeast 493 567 35,000  Level FlightAware ADS-B
Fri 01:39:45 AM 10.4990 -76.9880 139° Southeast 491 565 35,000  Level FlightAware ADS-B
Fri 01:40:30 AM 10.4190 -76.9130 137° Southeast 490 564 35,000  Level FlightAware ADS-B
Fri 01:41:25 AM 10.3240 -76.8260 138° Southeast 488 562 35,000  Level FlightAware ADS-B
Fri 01:42:05 AM 10.2580 -76.7650 138° Southeast 486 559 35,000  Level FlightAware ADS-B
Fri 01:42:45 AM 10.1910 -76.7020 137° Southeast 486 559 35,000  Level FlightAware ADS-B
Fri 01:43:32 AM 10.1270 -76.6400 136° Southeast 486 559 35,000  Level FlightAware ADS-B
Fri 01:44:11 AM 10.0470 -76.5680 138° Southeast 483 556 35,000  Level FlightAware ADS-B
Fri 01:44:56 AM 9.9710 -76.4990 138° Southeast 481 554 35,000  Level FlightAware ADS-B
Fri 01:45:36 AM 9.9050 -76.4370 137° Southeast 481 554 35,000  Level FlightAware ADS-B
Fri 01:46:17 AM 9.8380 -76.3750 138° Southeast 481 554 35,000  Level FlightAware ADS-B
Fri 01:47:01 AM 9.7620 -76.3050 138° Southeast 481 554 35,000  Level FlightAware ADS-B
Fri 01:47:46 AM 9.6880 -76.2370 138° Southeast 482 555 35,000  Level FlightAware ADS-B
Fri 01:48:42 AM 9.6170 -76.1680 136° Southeast 482 555 35,000  Level FlightAware ADS-B
Fri 01:49:18 AM 9.5680 -76.1200 136° Southeast 482 555 35,000  Level FlightAware ADS-B
Fri 01:50:06 AM 9.5030 -76.0560 136° Southeast 482 555 35,000  Level FlightAware ADS-B
Fri 01:50:43 AM 9.4520 -76.0060 136° Southeast 482 555 35,000  Level FlightAware ADS-B
Fri 01:51:32 AM 9.3860 -75.9410 136° Southeast 482 555 35,000  Level FlightAware ADS-B
Fri 01:52:09 AM 9.3350 -75.8910 136° Southeast 482 555 35,000  Level FlightAware ADS-B
Fri 01:52:45 AM 9.2860 -75.8430 136° Southeast 482 555 35,000  Level FlightAware ADS-B
Fri 01:53:33 AM 9.2210 -75.7790 136° Southeast 482 555 35,000  Level FlightAware ADS-B
Fri 01:54:15 AM 9.0380 -75.6380 143° Southeast 493 567 35,000  Level FlightAware ADS-B
Fri 01:54:57 AM 8.9600 -75.5660 138° Southeast 492 566 35,000  Level FlightAware ADS-B
Fri 01:55:39 AM 8.8920 -75.5040 138° Southeast 493 567 35,000  Level FlightAware ADS-B
Fri 01:56:24 AM 8.8150 -75.4330 138° Southeast 494 568 35,000  Level FlightAware ADS-B
Fri 01:57:03 AM 8.7460 -75.3700 138° Southeast 495 570 35,000  Level FlightAware ADS-B
Fri 01:57:59 AM 8.6530 -75.2850 138° Southeast 497 572 35,000  Level FlightAware ADS-B
Fri 01:58:47 AM 8.5830 -75.2210 138° Southeast 498 573 35,000  Level FlightAware ADS-B
Fri 01:59:28 AM 8.5070 -75.1510 138° Southeast 498 573 35,000  Level FlightAware ADS-B
Fri 02:00:05 AM 8.4530 -75.1020 138° Southeast 498 573 35,000  Level FlightAware ADS-B
Fri 02:00:58 AM 8.3520 -75.0100 138° Southeast 498 573 35,000  Level FlightAware ADS-B
Fri 02:01:47 AM 8.2810 -74.9450 138° Southeast 498 573 35,000  Level FlightAware ADS-B
Fri 02:02:23 AM 8.2280 -74.8970 138° Southeast 498 573 35,000  Level FlightAware ADS-B
Fri 02:03:12 AM 8.1570 -74.8320 138° Southeast 498 573 35,000  Level FlightAware ADS-B
Fri 02:03:48 AM 8.1050 -74.7850 138° Southeast 498 573 35,000  Level FlightAware ADS-B
Fri 02:04:37 AM 8.0330 -74.7200 138° Southeast 498 573 35,000  Level FlightAware ADS-B
Fri 02:05:17 AM 7.9750 -74.6670 138° Southeast 498 573 35,000  Level FlightAware ADS-B
Fri 02:05:53 AM 7.9230 -74.6190 138° Southeast 498 573 35,000  Level FlightAware ADS-B
Fri 02:06:42 AM 7.8510 -74.5540 138° Southeast 498 573 35,000  Level FlightAware ADS-B
Fri 02:07:18 AM 7.7990 -74.5070 138° Southeast 498 573 35,000  Level FlightAware ADS-B
Fri 02:08:07 AM 7.7280 -74.4420 138° Southeast 498 573 35,000  Level FlightAware ADS-B
Fri 02:08:43 AM 7.6750 -74.3940 138° Southeast 498 573 35,000  Level FlightAware ADS-B
Fri 02:09:30 AM 7.6070 -74.3320 138° Southeast 498 573 35,000  Level FlightAware ADS-B
Fri 02:10:04 AM 7.5570 -74.2870 138° Southeast 498 573 35,000 15 Level FlightAware ADS-B
Fri 02:12:00 AM 7.3655 -74.1142 138° Southeast  Level FlightAware Approximate
Fri 02:13:00 AM 7.2664 -74.0249 138° Southeast  Level FlightAware Approximate
Fri 02:14:00 AM 7.1673 -73.9356 138° Southeast  Level FlightAware Approximate
Fri 02:15:00 AM 7.0682 -73.8464 138° Southeast  Level FlightAware Approximate
Fri 02:16:00 AM 6.9608 -73.7696 152° Southeast  Level FlightAware Approximate
Fri 02:17:00 AM 6.8440 -73.7061 152° Southeast  Level FlightAware Approximate
Fri 02:18:00 AM 6.7273 -73.6427 152° Southeast  Level FlightAware Approximate
Fri 02:19:00 AM 6.6105 -73.5793 152° Southeast  Level FlightAware Approximate
Fri 02:20:00 AM 6.4938 -73.5159 152° Southeast  Level FlightAware Approximate
Fri 02:21:00 AM 6.3770 -73.4525 152° Southeast  Level FlightAware Approximate
Fri 02:22:00 AM 6.2602 -73.3892 152° Southeast  Level FlightAware Approximate
Fri 02:23:00 AM 6.1434 -73.3259 152° Southeast  Level FlightAware Approximate
Fri 02:24:00 AM 6.0266 -73.2626 152° Southeast  Level FlightAware Approximate
Fri 02:25:00 AM 5.9099 -73.1994 152° Southeast  Level FlightAware Approximate
Fri 02:26:00 AM 5.7930 -73.1362 152° Southeast  Level FlightAware Approximate
Fri 02:27:00 AM 5.6762 -73.0730 152° Southeast  Level FlightAware Approximate
Fri 02:28:00 AM 5.5594 -73.0098 152° Southeast  Level FlightAware Approximate
Fri 02:29:00 AM 5.4426 -72.9467 152° Southeast  Level FlightAware Approximate
Fri 02:30:00 AM 5.3257 -72.8836 152° Southeast  Level FlightAware Approximate
Fri 02:31:00 AM 5.2089 -72.8205 152° Southeast  Level FlightAware Approximate
Fri 02:32:00 AM 5.0920 -72.7574 152° Southeast  Level FlightAware Approximate
Fri 02:33:00 AM 4.9752 -72.6944 152° Southeast  Level FlightAware Approximate
Fri 02:34:00 AM 4.8583 -72.6313 152° Southeast  Level FlightAware Approximate
Fri 02:35:00 AM 4.7415 -72.5684 152° Southeast  Level FlightAware Approximate
Fri 02:36:00 AM 4.6246 -72.5054 152° Southeast  Level FlightAware Approximate
Fri 02:37:00 AM 4.5077 -72.4424 152° Southeast  Level FlightAware Approximate
Fri 02:38:00 AM 4.3908 -72.3795 152° Southeast  Level FlightAware Approximate
Fri 02:39:00 AM 4.2739 -72.3166 152° Southeast  Level FlightAware Approximate
Fri 02:40:00 AM 4.1571 -72.2536 152° Southeast  Level FlightAware Approximate
Fri 02:41:00 AM 4.0402 -72.1908 152° Southeast  Level FlightAware Approximate
Fri 02:42:00 AM 3.9242 -72.1269 145° Southeast  Level FlightAware Approximate
Fri 02:43:00 AM 3.8159 -72.0504 145° Southeast  Level FlightAware Approximate
Fri 02:44:00 AM 3.7076 -71.9740 145° Southeast  Level FlightAware Approximate
Fri 02:45:00 AM 3.5993 -71.8977 145° Southeast  Level FlightAware Approximate
Fri 02:46:00 AM 3.4910 -71.8213 145° Southeast  Level FlightAware Approximate
Fri 02:47:00 AM 3.3827 -71.7450 145° Southeast  Level FlightAware Approximate
Fri 02:48:00 AM 3.2744 -71.6686 145° Southeast  Level FlightAware Approximate
Fri 02:49:00 AM 3.1661 -71.5923 145° Southeast  Level FlightAware Approximate
Fri 02:50:00 AM 3.0578 -71.5160 145° Southeast  Level FlightAware Approximate
Fri 02:51:00 AM 2.9495 -71.4398 145° Southeast  Level FlightAware Approximate
Fri 02:52:00 AM 2.8411 -71.3635 145° Southeast  Level FlightAware Approximate
Fri 02:53:00 AM 2.7328 -71.2872 145° Southeast  Level FlightAware Approximate
Fri 02:54:00 AM 2.6245 -71.2110 145° Southeast  Level FlightAware Approximate
Fri 02:55:00 AM 2.5161 -71.1348 145° Southeast  Level FlightAware Approximate
Fri 02:56:00 AM 2.4078 -71.0586 145° Southeast  Level FlightAware Approximate
Fri 02:57:00 AM 2.2994 -70.9824 145° Southeast  Level FlightAware Approximate
Fri 02:58:00 AM 2.1911 -70.9062 145° Southeast  Level FlightAware Approximate
Fri 02:59:00 AM 2.0827 -70.8300 145° Southeast  Level FlightAware Approximate
Fri 03:00:00 AM 1.9743 -70.7539 145° Southeast  Level FlightAware Approximate
Fri 03:01:00 AM 1.8660 -70.6777 145° Southeast  Level FlightAware Approximate
Fri 03:02:00 AM 1.7576 -70.6015 145° Southeast  Level FlightAware Approximate
Fri 03:03:00 AM 1.6492 -70.5254 145° Southeast  Level FlightAware Approximate
Fri 03:04:00 AM 1.5408 -70.4493 145° Southeast  Level FlightAware Approximate
Fri 03:05:00 AM 1.4325 -70.3732 145° Southeast  Level FlightAware Approximate
Fri 03:06:00 AM 1.3241 -70.2971 145° Southeast  Level FlightAware Approximate
Fri 03:07:00 AM 1.2172 -70.2190 138° Southeast  Level FlightAware Approximate
Fri 03:08:00 AM 1.1183 -70.1309 138° Southeast  Level FlightAware Approximate
Fri 03:09:00 AM 1.0194 -70.0429 138° Southeast  Level FlightAware Approximate
Fri 03:10:00 AM 0.9210 -69.9553 138° Southeast  Level FlightAware Approximate
Fri 03:11:00 AM 0.8226 -69.8677 138° Southeast  Level FlightAware Approximate
Fri 03:12:00 AM 0.7242 -69.7802 138° Southeast  Level FlightAware Approximate
Fri 03:13:00 AM 0.6258 -69.6926 138° Southeast  Level FlightAware Approximate
Fri 03:14:00 AM 0.5274 -69.6050 138° Southeast  Level FlightAware Approximate
Fri 03:15:00 AM 0.4289 -69.5174 138° Southeast  Level FlightAware Approximate
Fri 03:16:00 AM 0.3305 -69.4299 138° Southeast  Level FlightAware Approximate
Fri 03:17:00 AM 0.2321 -69.3423 138° Southeast  Level FlightAware Approximate
Fri 03:18:00 AM 0.1337 -69.2548 138° Southeast  Level FlightAware Approximate
Fri 03:19:00 AM 0.0353 -69.1672 138° Southeast  Level FlightAware Approximate
Fri 03:20:00 AM -0.0631 -69.0797 138° Southeast  Level FlightAware Approximate
Fri 03:21:00 AM -0.1615 -68.9921 138° Southeast  Level FlightAware Approximate
Fri 03:22:00 AM -0.2599 -68.9045 138° Southeast  Level FlightAware Approximate
Fri 03:23:00 AM -0.3583 -68.8170 138° Southeast  Level FlightAware Approximate
Fri 03:24:00 AM -0.4568 -68.7294 138° Southeast  Level FlightAware Approximate
Fri 03:25:00 AM -0.5552 -68.6419 138° Southeast  Level FlightAware Approximate
Fri 03:26:00 AM -0.6536 -68.5543 138° Southeast  Level FlightAware Approximate
Fri 03:27:00 AM -0.7520 -68.4667 138° Southeast  Level FlightAware Approximate
Fri 03:28:00 AM -0.8504 -68.3791 138° Southeast  Level FlightAware Approximate
Fri 03:29:00 AM -0.9488 -68.2916 138° Southeast  Level FlightAware Approximate
Fri 03:30:00 AM -1.0472 -68.2040 138° Southeast  Level FlightAware Approximate
Fri 03:31:00 AM -1.1456 -68.1164 138° Southeast  Level FlightAware Approximate
Fri 03:32:00 AM -1.2440 -68.0288 138° Southeast  Level FlightAware Approximate
Fri 03:33:00 AM -1.3424 -67.9412 138° Southeast  Level FlightAware Approximate
Fri 03:34:00 AM -1.4408 -67.8536 138° Southeast  Level FlightAware Approximate
Fri 03:35:00 AM -1.5392 -67.7660 138° Southeast  Level FlightAware Approximate
Fri 03:36:00 AM -1.6375 -67.6783 138° Southeast  Level FlightAware Approximate
Fri 03:37:00 AM -1.7359 -67.5907 138° Southeast  Level FlightAware Approximate
Fri 03:38:00 AM -1.8343 -67.5031 138° Southeast  Level FlightAware Approximate
Fri 03:39:00 AM -1.9327 -67.4154 138° Southeast  Level FlightAware Approximate
Fri 03:40:00 AM -2.0310 -67.3278 138° Southeast  Level FlightAware Approximate
Fri 03:41:00 AM -2.1294 -67.2401 138° Southeast  Level FlightAware Approximate
Fri 03:42:00 AM -2.2278 -67.1524 138° Southeast  Level FlightAware Approximate
Fri 03:43:00 AM -2.3261 -67.0647 138° Southeast  Level FlightAware Approximate
Fri 03:44:00 AM -2.4245 -66.9770 138° Southeast  Level FlightAware Approximate
Fri 03:45:00 AM -2.5228 -66.8893 138° Southeast  Level FlightAware Approximate
Fri 03:46:00 AM -2.6211 -66.8016 138° Southeast  Level FlightAware Approximate
Fri 03:47:00 AM -2.7195 -66.7138 138° Southeast  Level FlightAware Approximate
Fri 03:48:00 AM -2.8178 -66.6260 138° Southeast  Level FlightAware Approximate
Fri 03:49:00 AM -2.9161 -66.5383 138° Southeast  Level FlightAware Approximate
Fri 03:50:00 AM -3.0144 -66.4505 138° Southeast  Level FlightAware Approximate
Fri 03:51:00 AM -3.1127 -66.3627 138° Southeast  Level FlightAware Approximate
Fri 03:52:00 AM -3.2110 -66.2748 138° Southeast  Level FlightAware Approximate
Fri 03:53:00 AM -3.3093 -66.1870 138° Southeast  Level FlightAware Approximate
Fri 03:54:00 AM -3.4076 -66.0991 138° Southeast  Level FlightAware Approximate
Fri 03:55:00 AM -3.5059 -66.0113 138° Southeast  Level FlightAware Approximate
Fri 03:56:00 AM -3.6041 -65.9234 138° Southeast  Level FlightAware Approximate
Fri 03:57:00 AM -3.7024 -65.8354 138° Southeast  Level FlightAware Approximate
Fri 03:58:00 AM -3.8006 -65.7475 138° Southeast  Level FlightAware Approximate
Fri 03:59:00 AM -3.8989 -65.6596 138° Southeast  Level FlightAware Approximate
Fri 04:00:00 AM -3.9971 -65.5716 138° Southeast  Level FlightAware Approximate
Fri 04:01:00 AM -4.0953 -65.4836 138° Southeast  Level FlightAware Approximate
Fri 04:02:00 AM -4.1935 -65.3956 138° Southeast  Level FlightAware Approximate
Fri 04:03:00 AM -4.2917 -65.3075 138° Southeast  Level FlightAware Approximate
Fri 04:04:00 AM -4.3899 -65.2195 138° Southeast  Level FlightAware Approximate
Fri 04:05:00 AM -4.4881 -65.1314 138° Southeast  Level FlightAware Approximate
Fri 04:06:00 AM -4.5863 -65.0433 138° Southeast  Level FlightAware Approximate
Fri 04:07:00 AM -4.6844 -64.9551 138° Southeast  Level FlightAware Approximate
Fri 04:08:00 AM -4.7826 -64.8670 138° Southeast  Level FlightAware Approximate
Fri 04:09:00 AM -4.8807 -64.7788 138° Southeast  Level FlightAware Approximate
Fri 04:10:00 AM -4.9788 -64.6906 138° Southeast  Level FlightAware Approximate
Fri 04:11:00 AM -5.0770 -64.6024 138° Southeast  Level FlightAware Approximate
Fri 04:12:00 AM -5.1750 -64.5141 138° Southeast  Level FlightAware Approximate
Fri 04:13:00 AM -5.2731 -64.4258 138° Southeast  Level FlightAware Approximate
Fri 04:14:00 AM -5.3712 -64.3375 138° Southeast  Level FlightAware Approximate
Fri 04:15:00 AM -5.4693 -64.2491 138° Southeast  Level FlightAware Approximate
Fri 04:16:00 AM -5.5673 -64.1608 138° Southeast  Level FlightAware Approximate
Fri 04:17:00 AM -5.6654 -64.0724 138° Southeast  Level FlightAware Approximate
Fri 04:18:00 AM -5.7634 -63.9839 138° Southeast  Level FlightAware Approximate
Fri 04:19:00 AM -5.8614 -63.8955 138° Southeast  Level FlightAware Approximate
Fri 04:20:00 AM -5.9594 -63.8070 138° Southeast  Level FlightAware Approximate
Fri 04:21:00 AM -6.0574 -63.7184 138° Southeast  Level FlightAware Approximate
Fri 04:22:00 AM -6.1554 -63.6299 138° Southeast  Level FlightAware Approximate
Fri 04:23:00 AM -6.2533 -63.5413 138° Southeast  Level FlightAware Approximate
Fri 04:24:00 AM -6.3512 -63.4527 138° Southeast  Level FlightAware Approximate
Fri 04:25:00 AM -6.4492 -63.3640 138° Southeast  Level FlightAware Approximate
Fri 04:26:00 AM -6.5469 -63.2755 138° Southeast  Level FlightAware Approximate
Fri 04:27:00 AM -6.6446 -63.1869 138° Southeast  Level FlightAware Approximate
Fri 04:28:00 AM -6.7423 -63.0983 138° Southeast  Level FlightAware Approximate
Fri 04:29:00 AM -6.8400 -63.0097 138° Southeast  Level FlightAware Approximate
Fri 04:30:00 AM -6.9377 -62.9210 138° Southeast  Level FlightAware Approximate
Fri 04:31:00 AM -7.0353 -62.8322 138° Southeast  Level FlightAware Approximate
Fri 04:32:00 AM -7.1330 -62.7435 138° Southeast  Level FlightAware Approximate
Fri 04:33:00 AM -7.2306 -62.6547 138° Southeast  Level FlightAware Approximate
Fri 04:34:00 AM -7.3282 -62.5659 138° Southeast  Level FlightAware Approximate
Fri 04:35:00 AM -7.4258 -62.4770 138° Southeast  Level FlightAware Approximate
Fri 04:36:00 AM -7.5233 -62.3881 138° Southeast  Level FlightAware Approximate
Fri 04:37:00 AM -7.6209 -62.2991 138° Southeast  Level FlightAware Approximate
Fri 04:38:00 AM -7.7184 -62.2102 138° Southeast  Level FlightAware Approximate
Fri 04:39:00 AM -7.8159 -62.1211 138° Southeast  Level FlightAware Approximate
Fri 04:40:00 AM -7.9134 -62.0321 138° Southeast  Level FlightAware Approximate
Fri 04:41:00 AM -8.0109 -61.9430 138° Southeast  Level FlightAware Approximate
Fri 04:42:00 AM -8.1084 -61.8538 138° Southeast  Level FlightAware Approximate
Fri 04:43:00 AM -8.2058 -61.7646 138° Southeast  Level FlightAware Approximate
Fri 04:44:00 AM -8.3032 -61.6754 138° Southeast  Level FlightAware Approximate
Fri 04:45:00 AM -8.4008 -61.5859 138° Southeast  Level FlightAware Approximate
Fri 04:46:00 AM -8.4984 -61.4964 138° Southeast  Level FlightAware Approximate
Fri 04:47:00 AM -8.5959 -61.4069 138° Southeast  Level FlightAware Approximate
Fri 04:48:00 AM -8.6934 -61.3173 138° Southeast  Level FlightAware Approximate
Fri 04:49:00 AM -8.7909 -61.2277 138° Southeast  Level FlightAware Approximate
Fri 04:50:00 AM -8.8883 -61.1380 138° Southeast  Level FlightAware Approximate
Fri 04:51:00 AM -8.9858 -61.0483 138° Southeast  Level FlightAware Approximate
Fri 04:52:00 AM -9.0832 -60.9585 138° Southeast  Level FlightAware Approximate
Fri 04:53:00 AM -9.1806 -60.8687 138° Southeast  Level FlightAware Approximate
Fri 04:54:00 AM -9.2780 -60.7788 138° Southeast  Level FlightAware Approximate
Fri 04:55:00 AM -9.3754 -60.6889 138° Southeast  Level FlightAware Approximate
Fri 04:56:00 AM -9.4729 -60.5988 138° Southeast  Level FlightAware Approximate
Fri 04:57:00 AM -9.5703 -60.5086 138° Southeast  Level FlightAware Approximate
Fri 04:58:00 AM -9.6678 -60.4184 138° Southeast  Level FlightAware Approximate
Fri 04:59:00 AM -9.7653 -60.3281 138° Southeast  Level FlightAware Approximate
Fri 05:00:00 AM -9.8627 -60.2377 138° Southeast  Level FlightAware Approximate
Fri 05:01:00 AM -9.9600 -60.1473 138° Southeast  Level FlightAware Approximate
Fri 05:02:00 AM -10.0574 -60.0569 138° Southeast  Level FlightAware Approximate
Fri 05:03:00 AM -10.1547 -59.9664 138° Southeast  Level FlightAware Approximate
Fri 05:04:00 AM -10.2521 -59.8759 138° Southeast  Level FlightAware Approximate
Fri 05:05:00 AM -10.3494 -59.7852 138° Southeast  Level FlightAware Approximate
Fri 05:06:00 AM -10.4466 -59.6946 137° Southeast  Level FlightAware Approximate
Fri 05:07:00 AM -10.5437 -59.6040 137° Southeast  Level FlightAware Approximate
Fri 05:08:00 AM -10.6407 -59.5134 137° Southeast  Level FlightAware Approximate
Fri 05:09:00 AM -10.7378 -59.4227 137° Southeast  Level FlightAware Approximate
Fri 05:10:00 AM -10.8348 -59.3320 137° Southeast  Level FlightAware Approximate
Fri 05:11:00 AM -10.9317 -59.2412 137° Southeast  Level FlightAware Approximate
Fri 05:12:00 AM -11.0287 -59.1503 137° Southeast  Level FlightAware Approximate
Fri 05:13:00 AM -11.1256 -59.0594 137° Southeast  Level FlightAware Approximate
Fri 05:14:00 AM -11.2224 -58.9684 137° Southeast  Level FlightAware Approximate
Fri 05:15:00 AM -11.3193 -58.8774 137° Southeast  Level FlightAware Approximate
Fri 05:16:00 AM -11.4161 -58.7863 137° Southeast  Level FlightAware Approximate
Fri 05:17:00 AM -11.5129 -58.6951 137° Southeast  Level FlightAware Approximate
Fri 05:18:00 AM -11.6097 -58.6039 137° Southeast  Level FlightAware Approximate
Fri 05:19:00 AM -11.7064 -58.5126 137° Southeast  Level FlightAware Approximate
Fri 05:20:00 AM -11.8031 -58.4213 137° Southeast  Level FlightAware Approximate
Fri 05:21:00 AM -11.8998 -58.3299 137° Southeast  Level FlightAware Approximate
Fri 05:22:00 AM -11.9965 -58.2384 137° Southeast  Level FlightAware Approximate
Fri 05:23:00 AM -12.0931 -58.1469 137° Southeast  Level FlightAware Approximate
Fri 05:24:00 AM -12.1897 -58.0553 137° Southeast  Level FlightAware Approximate
Fri 05:25:00 AM -12.2862 -57.9636 137° Southeast  Level FlightAware Approximate
Fri 05:26:00 AM -12.3828 -57.8718 137° Southeast  Level FlightAware Approximate
Fri 05:27:00 AM -12.4793 -57.7800 137° Southeast  Level FlightAware Approximate
Fri 05:28:00 AM -12.5757 -57.6881 137° Southeast  Level FlightAware Approximate
Fri 05:29:00 AM -12.6722 -57.5962 137° Southeast  Level FlightAware Approximate
Fri 05:30:00 AM -12.7686 -57.5042 137° Southeast  Level FlightAware Approximate
Fri 05:31:00 AM -12.8650 -57.4121 137° Southeast  Level FlightAware Approximate
Fri 05:32:00 AM -12.9613 -57.3199 137° Southeast  Level FlightAware Approximate
Fri 05:33:00 AM -13.0576 -57.2277 137° Southeast  Level FlightAware Approximate
Fri 05:34:00 AM -13.1539 -57.1354 137° Southeast  Level FlightAware Approximate
Fri 05:35:00 AM -13.2501 -57.0430 137° Southeast  Level FlightAware Approximate
Fri 05:36:00 AM -13.3464 -56.9506 137° Southeast  Level FlightAware Approximate
Fri 05:37:00 AM -13.4425 -56.8581 137° Southeast  Level FlightAware Approximate
Fri 05:38:00 AM -13.5387 -56.7654 137° Southeast  Level FlightAware Approximate
Fri 05:39:00 AM -13.6348 -56.6728 137° Southeast  Level FlightAware Approximate
Fri 05:40:00 AM -13.7309 -56.5800 137° Southeast  Level FlightAware Approximate
Fri 05:41:00 AM -13.8269 -56.4872 137° Southeast  Level FlightAware Approximate
Fri 05:42:00 AM -13.9229 -56.3943 137° Southeast  Level FlightAware Approximate
Fri 05:43:00 AM -14.0189 -56.3013 137° Southeast  Level FlightAware Approximate
Fri 05:44:00 AM -14.1148 -56.2083 137° Southeast  Level FlightAware Approximate
Fri 05:45:00 AM -14.2107 -56.1152 137° Southeast  Level FlightAware Approximate
Fri 05:46:00 AM -14.3066 -56.0219 137° Southeast  Level FlightAware Approximate
Fri 05:47:00 AM -14.4024 -55.9286 137° Southeast  Level FlightAware Approximate
Fri 05:48:00 AM -14.4982 -55.8353 137° Southeast  Level FlightAware Approximate
Fri 05:49:00 AM -14.5940 -55.7418 137° Southeast  Level FlightAware Approximate
Fri 05:50:00 AM -14.6897 -55.6483 137° Southeast  Level FlightAware Approximate
Fri 05:51:00 AM -14.7854 -55.5547 137° Southeast  Level FlightAware Approximate
Fri 05:52:00 AM -14.8810 -55.4610 137° Southeast  Level FlightAware Approximate
Fri 05:53:00 AM -14.9766 -55.3672 137° Southeast  Level FlightAware Approximate
Fri 05:54:00 AM -15.0722 -55.2733 137° Southeast  Level FlightAware Approximate
Fri 05:55:00 AM -15.1677 -55.1794 136° Southeast  Level FlightAware Approximate
Fri 05:56:00 AM -15.2632 -55.0854 136° Southeast  Level FlightAware Approximate
Fri 05:57:00 AM -15.3587 -54.9912 136° Southeast  Level FlightAware Approximate
Fri 05:58:00 AM -15.4541 -54.8970 136° Southeast  Level FlightAware Approximate
Fri 05:59:00 AM -15.5495 -54.8027 136° Southeast  Level FlightAware Approximate
Fri 06:00:00 AM -15.6448 -54.7084 136° Southeast  Level FlightAware Approximate
Fri 06:01:00 AM -15.7401 -54.6139 136° Southeast  Level FlightAware Approximate
Fri 06:02:00 AM -15.8353 -54.5193 136° Southeast  Level FlightAware Approximate
Fri 06:03:00 AM -15.9305 -54.4247 136° Southeast  Level FlightAware Approximate
Fri 06:04:00 AM -16.0257 -54.3299 136° Southeast  Level FlightAware Approximate
Fri 06:05:00 AM -16.1208 -54.2351 136° Southeast  Level FlightAware Approximate
Fri 06:06:00 AM -16.2159 -54.1402 136° Southeast  Level FlightAware Approximate
Fri 06:07:00 AM -16.3110 -54.0452 136° Southeast  Level FlightAware Approximate
Fri 06:08:00 AM -16.4060 -53.9501 136° Southeast  Level FlightAware Approximate
Fri 06:09:00 AM -16.5009 -53.8549 136° Southeast  Level FlightAware Approximate
Fri 06:10:00 AM -16.5958 -53.7596 136° Southeast  Level FlightAware Approximate
Fri 06:11:00 AM -16.6907 -53.6642 136° Southeast  Level FlightAware Approximate
Fri 06:12:00 AM -16.7855 -53.5687 136° Southeast  Level FlightAware Approximate
Fri 06:13:00 AM -16.8803 -53.4732 136° Southeast  Level FlightAware Approximate
Fri 06:14:00 AM -16.9750 -53.3775 136° Southeast  Level FlightAware Approximate
Fri 06:15:00 AM -17.0697 -53.2817 136° Southeast  Level FlightAware Approximate
Fri 06:16:00 AM -17.1644 -53.1859 136° Southeast  Level FlightAware Approximate
Fri 06:17:00 AM -17.2590 -53.0899 136° Southeast  Level FlightAware Approximate
Fri 06:18:00 AM -17.3535 -52.9939 136° Southeast  Level FlightAware Approximate
Fri 06:19:00 AM -17.4481 -52.8977 136° Southeast  Level FlightAware Approximate
Fri 06:20:00 AM -17.5425 -52.8014 136° Southeast  Level FlightAware Approximate
Fri 06:21:00 AM -17.6369 -52.7051 136° Southeast  Level FlightAware Approximate
Fri 06:22:00 AM -17.7313 -52.6086 136° Southeast  Level FlightAware Approximate
Fri 06:23:00 AM -17.8256 -52.5121 136° Southeast  Level FlightAware Approximate
Fri 06:24:00 AM -17.9199 -52.4154 136° Southeast  Level FlightAware Approximate
Fri 06:25:00 AM -18.0141 -52.3186 136° Southeast  Level FlightAware Approximate
Fri 06:26:00 AM -18.1083 -52.2217 136° Southeast  Level FlightAware Approximate
Fri 06:27:00 AM -18.2024 -52.1248 136° Southeast  Level FlightAware Approximate
Fri 06:28:00 AM -18.2965 -52.0277 136° Southeast  Level FlightAware Approximate
Fri 06:29:00 AM -18.3906 -51.9305 136° Southeast  Level FlightAware Approximate
Fri 06:30:00 AM -18.4846 -51.8332 136° Southeast  Level FlightAware Approximate
Fri 06:31:00 AM -18.5785 -51.7358 136° Southeast  Level FlightAware Approximate
Fri 06:32:00 AM -18.6724 -51.6383 135° Southeast  Level FlightAware Approximate
Fri 06:32:32 AM -19.0230 -50.6710 135° Southeast 504 580 39,000  Level FlightAware ADS-B
Fri 06:33:00 AM -18.7662 -51.5407 135° Southeast  Level FlightAware Approximate
Fri 06:33:16 AM -19.0940 -50.5930 134° Southeast 504 580 39,000  Level FlightAware ADS-B
Fri 06:33:58 AM -19.1560 -50.5260 134° Southeast 502 578 39,000  Level FlightAware ADS-B
Fri 06:34:38 AM -19.2280 -50.4470 134° Southeast 502 578 39,000  Level FlightAware ADS-B
Fri 06:35:20 AM -19.2960 -50.3730 134° Southeast 502 578 39,000  Level FlightAware ADS-B
Fri 06:36:04 AM -19.3670 -50.2940 134° Southeast 504 580 39,000  Level FlightAware ADS-B
Fri 06:36:44 AM -19.4310 -50.2240 134° Southeast 505 581 39,000  Level FlightAware ADS-B
Fri 06:37:26 AM -19.4990 -50.1490 134° Southeast 505 581 39,000  Level FlightAware ADS-B
Fri 06:38:10 AM -19.5710 -50.0700 134° Southeast 505 581 39,000  Level FlightAware ADS-B
Fri 06:38:52 AM -19.6380 -49.9950 133° Southeast 504 580 39,000  Level FlightAware ADS-B
Fri 06:39:34 AM -19.7080 -49.9200 135° Southeast 504 580 39,000  Level FlightAware ADS-B
Fri 06:40:14 AM -19.7720 -49.8500 134° Southeast 505 581 39,000  Level FlightAware ADS-B
Fri 06:40:58 AM -19.8430 -49.7720 134° Southeast 507 583 39,000  Level FlightAware ADS-B
Fri 06:41:38 AM -19.9090 -49.7000 134° Southeast 507 583 39,000  Level FlightAware ADS-B
Fri 06:42:22 AM -19.9810 -49.6210 134° Southeast 507 583 39,000  Level FlightAware ADS-B
Fri 06:43:04 AM -20.0500 -49.5460 134° Southeast 507 583 39,000  Level FlightAware ADS-B
Fri 06:43:42 AM -20.1110 -49.4780 134° Southeast 507 583 39,000  Level FlightAware ADS-B
Fri 06:44:28 AM -20.1870 -49.3950 134° Southeast 509 586 39,000  Level FlightAware ADS-B
Fri 06:45:08 AM -20.2530 -49.3220 134° Southeast 509 586 39,000  Level FlightAware ADS-B
Fri 06:45:52 AM -20.3240 -49.2440 134° Southeast 512 589 39,000  Level FlightAware ADS-B
Fri 06:46:33 AM -20.3920 -49.1690 134° Southeast 512 589 39,000  Level FlightAware ADS-B
Fri 06:47:16 AM -20.4640 -49.0890 134° Southeast 513 590 39,000  Level FlightAware ADS-B
Fri 06:47:58 AM -20.5330 -49.0120 134° Southeast 515 593 39,000  Level FlightAware ADS-B
Fri 06:48:38 AM -20.5990 -48.9390 134° Southeast 516 594 39,000  Level FlightAware ADS-B
Fri 06:49:18 AM -20.6640 -48.8660 134° Southeast 517 595 39,000  Level FlightAware ADS-B
Fri 06:50:03 AM -20.7380 -48.7840 134° Southeast 517 595 39,000  Level FlightAware ADS-B
Fri 06:50:45 AM -20.8080 -48.7060 134° Southeast 517 595 39,000  Level FlightAware ADS-B
Fri 06:51:29 AM -20.8820 -48.6230 134° Southeast 517 595 39,000  Level FlightAware ADS-B
Fri 06:52:11 AM -20.9510 -48.5450 133° Southeast 518 596 39,000  Level FlightAware ADS-B
Fri 06:52:51 AM -21.0170 -48.4710 134° Southeast 519 597 39,000  Level FlightAware ADS-B
Fri 06:53:33 AM -21.0860 -48.3930 133° Southeast 518 596 39,000  Level FlightAware ADS-B
Fri 06:54:15 AM -21.1550 -48.3150 133° Southeast 517 595 39,000  Level FlightAware ADS-B
Fri 06:54:59 AM -21.2270 -48.2330 133° Southeast 516 594 39,000  Level FlightAware ADS-B
Fri 06:55:39 AM -21.2940 -48.1580 134° Southeast 515 593 39,000  Level FlightAware ADS-B
Fri 06:56:19 AM -21.3630 -48.0870 136° Southeast 508 585 39,000  Level FlightAware ADS-B
Fri 06:57:04 AM -21.4440 -48.0200 142° Southeast 502 578 39,000  Level FlightAware ADS-B
Fri 06:57:45 AM -21.5220 -47.9580 144° Southeast 501 577 39,000  Level FlightAware ADS-B
Fri 06:58:25 AM -21.5960 -47.8990 143° Southeast 500 575 39,000  Level FlightAware ADS-B
Fri 06:59:10 AM -21.6780 -47.8330 143° Southeast 500 575 39,000  Level FlightAware ADS-B
Fri 06:59:51 AM -21.7550 -47.7690 142° Southeast 498 573 39,000 -456 Level FlightAware ADS-B
Fri 07:00:29 AM -21.8240 -47.7130 143° Southeast 492 566 38,400 -1,357 Descending FlightAware ADS-B
Fri 07:01:15 AM -21.9060 -47.6460 143° Southeast 484 557 37,100 -1,535 Descending FlightAware ADS-B
Fri 07:01:55 AM -21.9770 -47.5890 143° Southeast 481 554 36,200 -2,286 Descending FlightAware ADS-B
Fri 07:02:39 AM -22.0580 -47.5230 143° Southeast 490 564 33,900 -3,000 Descending FlightAware ADS-B
Fri 07:03:19 AM -22.1290 -47.4650 143° Southeast 479 551 32,000 -3,585 Descending FlightAware ADS-B
Fri 07:04:01 AM -22.2020 -47.4050 143° Southeast 482 555 29,000 -3,698 Descending FlightAware ADS-B
Fri 07:04:45 AM -22.2790 -47.3420 143° Southeast 461 531 26,700 -2,857 Descending FlightAware ADS-B
Fri 07:05:25 AM -22.3470 -47.2860 143° Southeast 448 516 25,000 -2,561 Descending FlightAware ADS-B
Fri 07:06:07 AM -22.4150 -47.2310 143° Southeast 434 499 23,200 -2,400 Descending FlightAware ADS-B
Fri 07:06:50 AM -22.4820 -47.1750 142° Southeast 428 493 21,600 -2,138 Descending FlightAware ADS-B
Fri 07:07:34 AM -22.5500 -47.1200 143° Southeast 428 493 20,100 -1,465 Descending FlightAware ADS-B
Fri 07:08:16 AM -22.6240 -47.0770 152° Southeast 416 479 19,500 -1,463 Descending FlightAware ADS-B
Fri 07:08:56 AM -22.6960 -47.0470 159° South 408 470 18,100 -1,769 Descending FlightAware ADS-B
Fri 07:09:34 AM -22.7390 -47.0290 159° South 405 466 17,200 -2,047 Descending FlightAware ADS-B
Fri 07:10:21 AM -22.8440 -46.9860 159° South 393 452 15,200 -2,000 Descending FlightAware ADS-B
Fri 07:10:58 AM -22.9060 -46.9600 159° South 375 432 14,400 -1,397 Descending FlightAware ADS-B
Fri 07:11:34 AM -22.9480 -46.9420 158° South 374 430 13,500 -1,823 Descending FlightAware ADS-B
Fri 07:12:17 AM -23.0220 -46.9110 159° South 367 422 12,000 -2,200 Descending FlightAware ADS-B
Fri 07:13:04 AM -23.1000 -46.8780 159° South 365 420 10,200 -1,667 Descending FlightAware ADS-B
Fri 07:13:29 AM -23.1390 -46.8620 159° South 326 375 10,000 -316 Descending FlightAware ADS-B
Fri 07:13:42 AM -23.1540 -46.8550 157° South 300 345 10,000 -973 Level FlightAware ADS-B
Fri 07:14:06 AM -23.1820 -46.8430 158° South 287 330 9,400 -2,000 Descending FlightAware ADS-B
Fri 07:14:36 AM -23.2210 -46.8270 159° South 273 314 8,200 -1,814 Descending FlightAware ADS-B
Fri 07:14:49 AM -23.2340 -46.8210 157° South 257 296 8,100 -522 Descending FlightAware ADS-B
Fri 07:15:22 AM -23.2750 -46.8040 159° South 222 255 7,800 -492 Descending FlightAware ADS-B
Fri 07:15:50 AM -23.3000 -46.7940 160° South 206 237 7,600 -517 Descending FlightAware ADS-B
Fri 07:16:20 AM -23.3270 -46.7820 158° South 200 230 7,300 -577 Descending FlightAware ADS-B
Fri 07:16:42 AM -23.3450 -46.7740 158° South 200 230 7,100 -566 Descending FlightAware ADS-B
Fri 07:17:13 AM -23.3720 -46.7620 158° South 203 234 6,800 -625 Descending FlightAware ADS-B
Fri 07:17:30 AM -23.3840 -46.7510 140° Southeast 207 238 6,600 -933 Descending FlightAware ADS-B
Fri 07:17:58 AM -23.4050 -46.7320 140° Southeast 207 238 6,100 -964 Descending FlightAware ADS-B
Fri 07:18:26 AM -23.4250 -46.7130 139° Southeast 202 232 5,700 -889 Descending FlightAware ADS-B
Fri 07:18:52 AM -23.4440 -46.6950 139° Southeast 197 227 5,300 -857 Descending FlightAware ADS-B
Fri 07:19:08 AM -23.4520 -46.6820 124° Southeast 195 224 5,100 -698 Descending FlightAware ADS-B
Fri 07:19:35 AM -23.4620 -46.6590 115° Southeast 194 223 4,800 -692 Descending FlightAware ADS-B
Fri 07:20:00 AM -23.4720 -46.6360 115° Southeast 193 222 4,500 -615 Descending FlightAware ADS-B
Fri 07:20:14 AM -23.4740 -46.6240 100° East 190 219 4,400 -409 Descending FlightAware ADS-B
Fri 07:20:44 AM -23.4680 -46.5960 77° East 187 215 4,200 -724 Descending FlightAware ADS-B
Fri 07:21:12 AM -23.4610 -46.5710 73° East 178 205 3,700 -964 Descending FlightAware ADS-B
Fri 07:21:40 AM -23.4550 -46.5480 74° East 154 177 3,300 -750 Descending FlightAware ADS-B
Fri 07:22:08 AM -23.4500 -46.5300 73° East 144 166 3,000 -750 Descending FlightAware ADS-B
Fri 07:22:36 AM -23.4450 -46.5100 75° East 142 163 2,600 -778 Descending FlightAware ADS-B
Fri 07:23:02 AM -23.4400 -46.4910 74° East 145 167 2,300 -692 Descending FlightAware ADS-B
Fri 07:23:31 AM -23.4350 -46.4740 72° East 100 115 -4,759 Descending FlightAware ADS-B
Fri 07:24:07 AM -23.4320 -46.4620 75° East 72 83  Level FlightAware ADS-B

Login

Don't have an account? Register now (free) for customized features, flight alerts, and more!